Time;durP1;ratioP1;P1;durP2;ratioP2;P2;SDS_P1;SDS_P2;PMS_P1;PMS_P2;Temp;Humidity;BMP_temperature;BMP_pressure;BME280_temperature;BME280_humidity;BME280_pressure;Samples;Min_cycle;Max_cycle;Signal;HPM_P1;HPM_P2
2021/04/05 00:01:17;;;;;;;8.13;5.37;;;;;;;11.57;44.06;100309.39;1818014;79;21492;-82
2021/04/05 00:03:45;;;;;;;7.22;5.53;;;;;;;11.55;44.13;100314.09;1818040;79;21057;-81
2021/04/05 00:06:14;;;;;;;8.53;5.83;;;;;;;11.55;44.19;100316.78;1817948;78;21539;-81
2021/04/05 00:08:43;;;;;;;9.10;5.75;;;;;;;11.54;44.24;100311.59;1818051;79;21060;-80
2021/04/05 00:11:10;;;;;;;9.58;5.90;;;;;;;11.51;44.43;100310.07;1818075;78;21112;-82
2021/04/05 00:13:41;;;;;;;9.08;5.30;;;;;;;11.51;44.62;100314.09;1818146;78;21114;-80
2021/04/05 00:16:11;;;;;;;6.95;5.35;;;;;;;11.48;44.71;100310.39;1788730;79;21128;-81
2021/04/05 00:18:39;;;;;;;7.90;5.80;;;;;;;11.47;44.82;100307.38;1818045;79;21128;-80
2021/04/05 00:21:16;;;;;;;5.92;5.08;;;;;;;11.48;44.91;100305.53;1818032;78;21140;-82
2021/04/05 00:23:46;;;;;;;7.80;5.37;;;;;;;11.46;45.03;100301.69;1818176;78;21056;-81
2021/04/05 00:26:14;;;;;;;7.92;6.03;;;;;;;11.45;45.17;100301.87;1818177;78;21496;-81
2021/04/05 00:28:43;;;;;;;8.68;6.25;;;;;;;11.45;45.26;100300.02;1789124;79;21073;-81
2021/04/05 00:31:10;;;;;;;9.70;5.97;;;;;;;11.44;45.27;100295.64;1818077;79;21129;-79
2021/04/05 00:33:37;;;;;;;11.18;6.25;;;;;;;11.43;45.42;100294.80;1818010;79;21184;-79
2021/04/05 00:36:05;;;;;;;10.15;6.20;;;;;;;11.42;45.44;100292.30;1818119;79;21049;-79
2021/04/05 00:38:32;;;;;;;7.75;5.50;;;;;;;11.41;45.54;100294.66;1818094;79;21037;-79
2021/04/05 00:41:08;;;;;;;8.78;6.22;;;;;;;11.36;45.63;100292.98;1818119;78;21100;-79
2021/04/05 00:43:36;;;;;;;8.63;6.05;;;;;;;11.39;45.62;100289.44;1788781;79;21231;-79
2021/04/05 00:46:06;;;;;;;8.13;6.25;;;;;;;11.43;45.58;100289.95;1818177;79;21053;-79
2021/04/05 00:48:33;;;;;;;8.10;6.05;;;;;;;11.45;45.65;100286.61;1818942;79;21148;-82
2021/04/05 00:51:16;;;;;;;7.00;5.70;;;;;;;11.46;45.75;100290.12;1818359;79;21053;-82
2021/04/05 00:53:45;;;;;;;7.50;6.15;;;;;;;11.46;45.79;100292.81;1818140;78;21062;-82
2021/04/05 00:56:15;;;;;;;8.80;6.47;;;;;;;11.47;45.78;100289.95;1818353;79;21085;-83
2021/04/05 00:58:43;;;;;;;7.72;5.95;;;;;;;11.52;45.70;100284.91;1818416;79;21064;-82
2021/04/05 01:01:13;;;;;;;9.83;6.33;;;;;;;11.53;45.65;100278.53;1788896;79;21116;-81
2021/04/05 01:03:43;;;;;;;9.03;6.12;;;;;;;11.53;45.62;100281.73;1818055;79;21088;-79
2021/04/05 01:06:18;;;;;;;8.80;6.37;;;;;;;11.54;45.62;100284.26;1818065;79;21136;-81
2021/04/05 01:08:45;;;;;;;9.63;6.42;;;;;;;11.55;45.64;100286.44;1818002;79;21053;-80
2021/04/05 01:11:15;;;;;;;7.58;5.78;;;;;;;11.55;45.55;100283.75;1818121;79;21044;-80
2021/04/05 01:13:43;;;;;;;9.08;5.92;;;;;;;11.56;45.47;100280.06;1818134;78;21619;-79
2021/04/05 01:16:11;;;;;;;8.90;6.22;;;;;;;11.56;45.51;100275.53;1818923;79;21544;-79
2021/04/05 01:18:40;;;;;;;9.40;6.80;;;;;;;11.57;45.55;100275.86;1819863;79;21132;-81
2021/04/05 01:21:08;;;;;;;9.20;6.03;;;;;;;11.60;45.41;100275.53;1818869;78;21192;-79
2021/04/05 01:23:36;;;;;;;10.70;6.08;;;;;;;11.60;45.31;100272.84;1818309;79;21053;-80
2021/04/05 01:26:04;;;;;;;7.05;6.10;;;;;;;11.60;45.31;100274.19;1788691;79;21048;-80
2021/04/05 01:28:31;;;;;;;9.03;6.15;;;;;;;11.62;45.24;100270.81;1818148;79;21547;-81
2021/04/05 01:31:00;;;;;;;7.42;5.83;;;;;;;11.63;45.20;100264.97;1818023;79;21108;-82
2021/04/05 01:33:35;;;;;;;10.48;6.35;;;;;;;11.63;45.18;100261.78;1818053;78;21175;-80
2021/04/05 01:36:07;;;;;;;8.48;6.28;;;;;;;11.63;45.14;100267.15;1816953;78;21175;-79
2021/04/05 01:38:45;;;;;;;10.00;6.05;;;;;;;11.60;45.21;100267.48;1816699;79;21161;-81
2021/04/05 01:41:24;;;;;;;9.95;6.53;;;;;;;11.60;45.13;100274.69;1787379;79;21618;-81
2021/04/05 01:43:52;;;;;;;8.08;6.20;;;;;;;11.56;45.15;100270.16;1817224;78;21136;-79
2021/04/05 01:46:20;;;;;;;8.80;6.47;;;;;;;11.52;45.20;100263.45;1816938;78;21675;-78
2021/04/05 01:48:50;;;;;;;10.30;6.83;;;;;;;11.52;45.21;100273.35;1816560;79;21203;-78
2021/04/05 01:51:20;;;;;;;9.55;6.05;;;;;;;11.50;45.29;100273.53;1810762;79;21158;-79
2021/04/05 01:53:49;;;;;;;10.05;6.58;;;;;;;11.47;45.28;100268.49;1811416;79;21190;-79
2021/04/05 01:56:17;;;;;;;10.28;6.78;;;;;;;11.43;45.40;100263.96;1811321;79;21047;-79
2021/04/05 01:58:47;;;;;;;9.05;6.75;;;;;;;11.41;45.41;100257.11;1787998;80;21078;-79
2021/04/05 02:01:22;;;;;;;9.33;6.97;;;;;;;11.41;45.40;100255.77;1802611;79;21086;-77
2021/04/05 02:03:50;;;;;;;9.63;7.05;;;;;;;11.39;45.43;100255.91;1788234;80;21540;-79
2021/04/05 02:06:27;;;;;;;11.80;7.25;;;;;;;11.39;45.40;100255.08;1802687;79;21174;-78
2021/04/05 02:08:54;;;;;;;14.20;7.58;;;;;;;11.37;45.44;100255.27;1788136;80;21472;-77
2021/04/05 02:11:26;;;;;;;19.30;7.10;;;;;;;11.38;45.43;100252.07;1802557;79;21506;-81
2021/04/05 02:13:57;;;;;;;10.90;7.08;;;;;;;11.35;45.43;100245.70;1788184;80;21069;-77
2021/04/05 02:16:25;;;;;;;10.58;7.30;;;;;;;11.29;45.49;100241.02;1775823;79;21067;-78
2021/04/05 02:18:54;;;;;;;9.38;6.65;;;;;;;11.27;45.65;100235.00;1787982;80;21053;-77
2021/04/05 02:21:24;;;;;;;9.58;6.35;;;;;;;11.23;45.61;100236.34;1802742;79;21106;-78
2021/04/05 02:23:52;;;;;;;69.53;9.68;;;;;;;11.24;45.69;100238.00;1788095;80;21168;-79
2021/04/05 02:26:22;;;;;;;277.18;22.80;;;;;;;11.25;45.75;100236.98;1802709;79;21593;-80
2021/04/05 02:28:52;;;;;;;13.40;7.28;;;;;;;11.26;45.71;100238.66;1788165;80;21130;-80
2021/04/05 02:31:23;;;;;;;10.98;7.55;;;;;;;11.32;45.54;100236.67;1759665;80;21140;-79
2021/04/05 02:33:53;;;;;;;11.57;8.00;;;;;;;11.31;45.47;100233.63;1788179;80;21105;-80
2021/04/05 02:36:25;;;;;;;12.07;6.97;;;;;;;11.33;45.46;100232.47;1788082;80;21097;-79
2021/04/05 02:39:00;;;;;;;78.83;10.00;;;;;;;11.31;45.42;100230.95;1759507;80;21073;-77
2021/04/05 02:41:29;;;;;;;15.13;7.03;;;;;;;11.28;45.46;100223.26;1781584;80;21098;-78
2021/04/05 02:43:57;;;;;;;10.95;8.05;;;;;;;11.30;45.41;100221.23;1781983;80;21074;-79
2021/04/05 02:46:29;;;;;;;12.93;8.83;;;;;;;11.32;45.38;100217.89;1781965;80;21603;-78
2021/04/05 02:49:01;;;;;;;12.33;8.15;;;;;;;11.33;45.38;100215.55;1780321;80;21070;-81
2021/04/05 02:51:28;;;;;;;14.40;9.43;;;;;;;11.35;45.27;100221.56;1787018;79;21105;-77
2021/04/05 02:54:00;;;;;;;16.45;9.13;;;;;;;11.36;45.27;100220.58;1784833;80;21199;-78
2021/04/05 02:56:29;;;;;;;14.60;8.95;;;;;;;11.34;45.26;100217.21;1784942;80;21179;-77
2021/04/05 02:58:57;;;;;;;15.65;10.05;;;;;;;11.34;45.27;100218.05;1784979;80;21167;-76
2021/04/05 03:01:27;;;;;;;14.68;9.60;;;;;;;11.34;45.25;100217.21;1784596;80;21171;-77
2021/04/05 03:03:58;;;;;;;14.63;10.20;;;;;;;11.34;45.24;100209.17;1758120;80;21156;-76
2021/04/05 03:06:28;;;;;;;14.70;9.95;;;;;;;11.35;45.25;100202.79;1757437;80;21348;-78
2021/04/05 03:08:59;;;;;;;16.15;9.68;;;;;;;11.35;45.22;100200.11;1783517;80;21204;-78
2021/04/05 03:11:25;;;;;;;15.63;10.35;;;;;;;11.35;45.26;100198.77;1783499;80;21175;-77
2021/04/05 03:13:53;;;;;;;13.30;10.08;;;;;;;11.34;45.27;100195.76;1757914;80;21208;-78
2021/04/05 03:16:23;;;;;;;13.90;10.18;;;;;;;11.33;45.30;100198.11;1783974;80;21207;-77
2021/04/05 03:18:53;;;;;;;15.95;11.48;;;;;;;11.29;45.36;100202.97;1798341;77;21562;-79
2021/04/05 03:21:23;;;;;;;15.95;12.37;;;;;;;11.30;45.40;100203.30;1785254;77;21196;-77
2021/04/05 03:23:50;;;;;;;16.27;11.45;;;;;;;11.31;45.42;100202.79;1784524;79;21191;-78
2021/04/05 03:26:17;;;;;;;19.98;12.70;;;;;;;11.29;45.48;100206.16;1737143;80;21488;-78
2021/04/05 03:28:45;;;;;;;15.35;11.95;;;;;;;11.26;45.49;100205.98;1791313;79;21656;-78
2021/04/05 03:31:14;;;;;;;;;;;;;;;11.24;45.53;100199.13;1786733;79;21171;-78
2021/04/05 03:33:49;;;;;;;14.30;10.88;;;;;;;11.23;45.55;100197.46;1790192;78;20290;-79
2021/04/05 03:36:28;;;;;;;17.95;10.93;;;;;;;11.21;45.57;100195.44;1784788;79;21068;-78
2021/04/05 03:38:58;;;;;;;17.00;12.23;;;;;;;11.22;45.60;100197.10;1784817;80;21139;-79
2021/04/05 03:41:54;;;;;;;15.93;11.35;;;;;;;11.23;45.53;100197.46;1784301;79;21663;-77
2021/04/05 03:44:54;;;;;;;18.87;11.93;;;;;;;11.20;45.54;100192.42;1784074;80;21191;-77
2021/04/05 03:47:36;;;;;;;18.60;12.00;;;;;;;11.13;45.62;100188.26;1786415;79;21131;-81
2021/04/05 03:50:35;;;;;;;19.67;12.53;;;;;;;11.10;45.60;100192.09;1783593;80;21586;-77
2021/04/05 03:53:14;;;;;;;19.50;12.30;;;;;;;11.14;45.50;100194.78;1784387;80;21159;-78
2021/04/05 03:55:41;;;;;;;19.02;13.00;;;;;;;11.16;45.48;100198.11;1757288;79;21753;-75
2021/04/05 03:58:12;;;;;;;25.43;15.72;;;;;;;11.13;45.55;100193.62;1758548;80;21171;-76
2021/04/05 04:00:39;;;;;;;24.27;16.05;;;;;;;11.09;45.47;100197.13;1756952;79;21211;-77
2021/04/05 04:03:08;;;;;;;27.95;16.77;;;;;;;11.01;45.35;100198.97;1807195;79;21491;-77
2021/04/05 04:05:45;;;;;;;29.85;18.20;;;;;;;10.90;45.34;100206.81;1789027;79;21168;-77
2021/04/05 04:08:20;;;;;;;35.83;20.75;;;;;;;10.77;45.40;100210.52;1798737;79;21231;-79
2021/04/05 04:10:50;;;;;;;33.42;20.12;;;;;;;10.68;45.51;100211.51;1783925;79;21183;-77
2021/04/05 04:13:18;;;;;;;39.40;21.68;;;;;;;10.51;45.63;100209.28;1797329;77;21180;-78
2021/04/05 04:15:49;;;;;;;49.20;26.33;;;;;;;10.44;45.70;100211.77;1810186;77;21180;-76
2021/04/05 04:18:17;;;;;;;48.73;26.00;;;;;;;10.30;45.82;100223.94;1817663;77;21120;-76
2021/04/05 04:20:46;;;;;;;50.83;27.13;;;;;;;10.19;45.96;100218.02;1785417;77;21427;-77
2021/04/05 04:23:13;;;;;;;53.80;27.32;;;;;;;10.10;46.27;100218.48;1775993;80;21636;-76
2021/04/05 04:25:41;;;;;;;54.20;31.85;;;;;;;10.03;46.37;100218.27;1791732;80;21114;-78
2021/04/05 04:28:14;;;;;;;60.75;33.42;;;;;;;10.01;46.62;100226.14;1788787;79;21135;-78
2021/04/05 04:30:41;;;;;;;58.98;35.48;;;;;;;10.05;46.49;100222.98;1798360;77;21457;-78
2021/04/05 04:33:10;;;;;;;57.03;34.38;;;;;;;10.06;46.42;100219.30;1796397;77;21159;-76
2021/04/05 04:35:39;;;;;;;67.40;38.70;;;;;;;10.05;46.31;100220.81;1802663;79;21682;-77
2021/04/05 04:38:06;;;;;;;63.25;38.88;;;;;;;10.00;46.43;100225.30;1800448;77;21105;-78
2021/04/05 04:40:35;;;;;;;61.13;36.83;;;;;;;10.00;46.55;100222.63;1802378;79;21116;-77
2021/04/05 04:43:05;;;;;;;58.42;33.38;;;;;;;10.05;46.43;100223.48;1796130;77;21128;-79
2021/04/05 04:45:34;;;;;;;61.23;34.45;;;;;;;10.07;46.34;100226.33;1810829;79;21130;-78
2021/04/05 04:48:01;;;;;;;51.05;32.42;;;;;;;10.06;46.34;100235.36;1802091;79;21117;-77
2021/04/05 04:50:28;;;;;;;58.15;32.10;;;;;;;10.00;46.29;100233.33;1801023;79;21214;-78
2021/04/05 04:52:55;;;;;;;63.65;32.55;;;;;;;9.97;46.23;100230.97;1794931;78;21500;-79
2021/04/05 04:55:24;;;;;;;61.70;33.08;;;;;;;9.93;46.30;100226.93;1795053;79;21220;-78
2021/04/05 04:57:56;;;;;;;57.50;34.23;;;;;;;9.93;46.70;100225.59;1806380;79;21184;-78
2021/04/05 05:00:25;;;;;;;70.15;38.30;;;;;;;10.06;46.69;100221.98;1801323;77;21216;-79
2021/04/05 05:02:52;;;;;;;70.92;40.52;;;;;;;10.21;46.61;100220.02;1790090;80;21169;-78
2021/04/05 05:05:21;;;;;;;69.15;38.75;;;;;;;10.34;46.41;100207.05;1801484;77;21256;-80
2021/04/05 05:07:48;;;;;;;82.57;45.83;;;;;;;10.38;46.11;100212.42;1802718;77;21744;-78
2021/04/05 05:10:17;;;;;;;83.95;46.98;;;;;;;10.35;45.94;100210.90;1798135;77;21438;-76
2021/04/05 05:12:45;;;;;;;84.42;44.60;;;;;;;10.33;46.07;100210.74;1771652;79;21216;-77
2021/04/05 05:15:14;;;;;;;86.15;47.10;;;;;;;10.29;46.18;100212.06;1788133;79;21162;-78
2021/04/05 05:17:44;;;;;;;84.40;46.20;;;;;;;10.32;46.26;100211.25;1764446;77;21595;-76
2021/04/05 05:20:17;;;;;;;90.32;48.60;;;;;;;10.37;46.26;100214.27;1798520;77;21124;-79
2021/04/05 05:22:57;;;;;;;85.80;48.28;;;;;;;10.45;46.39;100201.92;1794749;77;21100;-80
2021/04/05 05:25:25;;;;;;;75.72;44.90;;;;;;;10.57;46.58;100207.28;1792619;77;21112;-78
2021/04/05 05:28:02;;;;;;;74.92;44.53;;;;;;;10.70;46.41;100196.09;1794040;77;21609;-77
2021/04/05 05:30:30;;;;;;;81.57;49.85;;;;;;;10.80;46.23;100196.77;1793349;77;21729;-78
2021/04/05 05:33:01;;;;;;;63.48;35.45;;;;;;;10.94;46.07;100193.42;1791776;77;21604;-77
2021/04/05 05:35:28;;;;;;;62.60;35.80;;;;;;;11.11;46.02;100193.77;1763752;77;21128;-77
2021/04/05 05:38:01;;;;;;;59.42;33.60;;;;;;;11.24;45.76;100185.22;1793802;77;21100;-77
2021/04/05 05:40:29;;;;;;;20.40;12.50;;;;;;;11.35;45.50;100189.38;1793159;77;21135;-78
2021/04/05 05:43:52;;;;;;;16.60;10.08;;;;;;;11.51;45.72;100189.37;1793924;77;22008;-78
2021/04/05 05:46:43;;;;;;;11.70;8.40;;;;;;;11.66;45.53;100182.28;1795506;77;37568;-76
2021/04/05 05:49:22;;;;;;;13.93;8.83;;;;;;;11.88;45.43;100179.91;1791629;79;21576;-79
2021/04/05 05:52:04;;;;;;;11.08;7.62;;;;;;;12.05;44.97;100182.86;1795143;77;21152;-79
2021/04/05 05:55:05;;;;;;;9.63;7.22;;;;;;;12.21;44.83;100177.07;1793594;77;21092;-78
2021/04/05 05:57:45;;;;;;;9.58;6.80;;;;;;;12.36;44.60;100172.13;1789098;78;21115;-77
2021/04/05 06:00:29;;;;;;;10.23;7.70;;;;;;;12.56;44.25;100177.88;1783450;77;21119;-79
2021/04/05 06:03:33;;;;;;;11.22;7.80;;;;;;;12.72;43.91;100176.95;1797290;77;21129;-76
2021/04/05 06:06:19;;;;;;;10.53;7.55;;;;;;;12.87;43.75;100172.97;1793914;77;21108;-78
2021/04/05 06:09:12;;;;;;;10.65;7.42;;;;;;;13.04;43.50;100169.13;1801865;77;21116;-77
2021/04/05 06:12:06;;;;;;;13.18;7.00;;;;;;;13.21;43.18;100169.80;1759933;77;21166;-78
2021/04/05 06:15:15;;;;;;;8.50;6.92;;;;;;;13.37;42.84;100164.82;1771649;77;21803;-77
2021/04/05 06:18:16;;;;;;;9.10;7.62;;;;;;;13.54;42.43;100170.37;1795708;77;21108;-77
2021/04/05 06:20:50;;;;;;;8.55;6.67;;;;;;;13.74;42.01;100176.54;1797150;77;21131;-77
2021/04/05 06:23:41;;;;;;;9.28;7.37;;;;;;;13.91;41.37;100179.37;1794602;77;21080;-77
2021/04/05 06:26:19;;;;;;;12.35;7.15;;;;;;;13.92;41.05;100179.69;1795727;77;21167;-79
2021/04/05 06:29:05;;;;;;;13.65;7.55;;;;;;;13.96;40.80;100179.13;1796530;77;22052;-78
2021/04/05 06:31:52;;;;;;;10.50;6.53;;;;;;;14.03;40.85;100181.89;1794438;77;21182;-78
2021/04/05 06:34:37;;;;;;;11.68;7.87;;;;;;;14.12;40.38;100176.73;1796511;77;21104;-79
2021/04/05 06:37:44;;;;;;;10.88;7.17;;;;;;;14.19;40.37;100169.58;1796827;77;21090;-77
2021/04/05 06:40:24;;;;;;;7.35;5.90;;;;;;;14.29;40.20;100172.48;1795559;77;21155;-78
2021/04/05 06:43:28;;;;;;;7.25;4.92;;;;;;;14.46;39.83;100164.50;1750104;78;21162;-77
2021/04/05 06:46:26;;;;;;;8.55;6.20;;;;;;;14.64;39.23;100170.33;1755453;80;21114;-79
2021/04/05 06:49:38;;;;;;;9.00;5.97;;;;;;;14.81;38.74;100163.34;1729964;81;21976;-79
2021/04/05 06:52:44;;;;;;;8.90;4.65;;;;;;;15.01;38.13;100156.25;1729025;81;21127;-77
2021/04/05 06:55:43;;;;;;;5.87;3.33;;;;;;;15.07;38.11;100161.38;1726862;81;21175;-78
2021/04/05 06:58:57;;;;;;;7.08;4.22;;;;;;;15.19;37.62;100157.96;1727780;81;23945;-77
2021/04/05 07:02:07;;;;;;;5.12;3.27;;;;;;;15.36;37.35;100154.98;1698883;81;21155;-76
2021/04/05 07:05:14;;;;;;;6.92;4.90;;;;;;;15.51;36.81;100150.82;1681174;82;21124;-77
2021/04/05 07:07:57;;;;;;;3.67;2.90;;;;;;;15.65;36.40;100145.33;1730735;81;21191;-78
2021/04/05 07:10:32;;;;;;;4.53;3.40;;;;;;;15.79;35.78;100140.00;1727682;81;21124;-77
2021/04/05 07:13:06;;;;;;;5.55;3.87;;;;;;;15.89;35.79;100139.11;1730886;81;21123;-77
2021/04/05 07:15:54;;;;;;;12.10;9.10;;;;;;;16.02;35.11;100135.64;1703771;81;21121;-76
2021/04/05 07:18:53;;;;;;;;;;;;;;;16.14;35.45;100138.92;1748659;80;21124;-75
2021/04/05 07:21:51;;;;;;;18.42;9.25;;;;;;;16.19;35.38;100135.09;1710166;82;20276;-76
2021/04/05 07:24:42;;;;;;;17.07;9.98;;;;;;;16.18;35.31;100132.08;1724615;81;21647;-76
2021/04/05 07:27:17;;;;;;;16.20;9.53;;;;;;;16.18;35.46;100136.66;1749637;80;21150;-76
2021/04/05 07:30:07;;;;;;;17.85;9.50;;;;;;;16.16;35.42;100133.30;1740320;80;21155;-78
2021/04/05 07:33:20;;;;;;;15.93;9.30;;;;;;;16.14;35.48;100129.46;1724149;81;21604;-79
2021/04/05 07:36:44;;;;;;;11.97;9.23;;;;;;;16.21;35.46;100125.42;1751654;80;21163;-77
2021/04/05 07:39:33;;;;;;;12.28;8.83;;;;;;;16.37;35.20;100117.47;1747370;80;21157;-77
2021/04/05 07:42:31;;;;;;;15.05;8.93;;;;;;;16.59;35.14;100112.73;1735156;81;21124;-77
2021/04/05 07:45:12;;;;;;;12.47;7.87;;;;;;;16.82;34.45;100109.67;1803193;77;21599;-78
2021/04/05 07:48:22;;;;;;;11.35;7.72;;;;;;;17.04;33.97;100107.08;1736412;81;21156;-77
2021/04/05 07:50:58;;;;;;;7.85;5.92;;;;;;;17.23;33.62;100110.80;1780481;77;21125;-80
2021/04/05 07:53:52;;;;;;;8.03;5.97;;;;;;;17.37;32.72;100111.09;1804867;77;21135;-79
2021/04/05 07:56:41;;;;;;;6.60;5.62;;;;;;;17.44;32.24;100110.56;1798243;77;21134;-78
2021/04/05 07:59:34;;;;;;;6.92;4.97;;;;;;;17.50;32.06;100104.82;1799798;77;21170;-77
2021/04/05 08:02:13;;;;;;;8.13;4.92;;;;;;;17.46;31.49;100104.41;1801997;77;21131;-78
2021/04/05 08:05:18;;;;;;;6.55;5.00;;;;;;;17.35;31.35;100106.91;1735997;81;21126;-77
2021/04/05 08:08:03;;;;;;;8.50;5.10;;;;;;;17.26;31.44;100091.44;1801636;77;21393;-79
2021/04/05 08:10:52;;;;;;;9.33;3.17;;;;;;;17.23;31.40;100091.33;1799497;77;21218;-79
2021/04/05 08:13:37;;;;;;;3.65;2.77;;;;;;;17.24;30.59;100078.09;1800563;77;21178;-78
2021/04/05 08:16:38;;;;;;;4.28;3.17;;;;;;;17.25;30.28;100076.22;1777874;79;21190;-79
2021/04/05 08:19:37;;;;;;;6.55;3.15;;;;;;;17.24;30.33;100075.39;1797638;77;21175;-80
2021/04/05 08:22:28;;;;;;;6.05;3.25;;;;;;;17.30;30.25;100068.81;1796535;77;21183;-78
2021/04/05 08:25:44;;;;;;;3.85;3.20;;;;;;;17.36;30.07;100062.58;1796921;77;21178;-80
2021/04/05 08:28:22;;;;;;;3.37;2.80;;;;;;;17.43;29.62;100060.66;1798577;77;21119;-78
2021/04/05 08:32:04;;;;;;;4.35;3.02;;;;;;;17.50;29.62;100065.03;1764447;77;21586;-78
2021/04/05 08:35:48;;;;;;;4.17;2.77;;;;;;;17.64;29.41;100052.27;1818468;76;23963;-77
2021/04/05 08:38:27;;;;;;;6.55;3.45;;;;;;;17.66;29.21;100052.88;1830499;76;21132;-78
2021/04/05 08:41:22;;;;;;;4.40;2.70;;;;;;;17.72;29.27;100043.91;1800973;77;21690;-78
2021/04/05 08:44:19;;;;;;;4.33;3.30;;;;;;;17.78;28.90;100042.77;1801423;77;21182;-78
2021/04/05 08:46:48;;;;;;;3.52;3.00;;;;;;;17.83;28.70;100033.47;1795818;78;21158;-77
2021/04/05 08:49:20;;;;;;;3.35;3.00;;;;;;;17.89;28.52;100032.59;1793811;78;21187;-77
2021/04/05 08:51:53;;;;;;;4.47;2.98;;;;;;;17.89;28.33;100026.66;1766179;79;21132;-77
2021/04/05 08:54:32;;;;;;;7.80;2.33;;;;;;;17.78;28.29;100025.99;1783015;78;21726;-78
2021/04/05 08:57:30;;;;;;;4.75;2.27;;;;;;;17.65;28.40;100023.31;1779138;77;21874;-78
2021/04/05 09:00:23;;;;;;;4.53;2.50;;;;;;;17.58;28.85;100021.17;1757896;78;21081;-78
2021/04/05 09:02:56;;;;;;;5.67;3.20;;;;;;;17.57;29.27;100023.55;1775246;77;21140;-79
2021/04/05 09:05:26;;;;;;;6.45;3.85;;;;;;;17.52;29.48;100022.00;1771239;80;21110;-79
2021/04/05 09:11:03;;;;;;;3.90;3.47;;;;;;;17.36;30.08;100017.38;1739081;80;21655;-77
2021/04/05 09:13:37;;;;;;;5.62;3.98;;;;;;;17.20;29.53;100013.25;1767821;80;21132;-78
2021/04/05 09:16:42;;;;;;;5.08;4.00;;;;;;;17.08;29.74;100015.45;1766874;80;21149;-79
2021/04/05 09:19:57;;;;;;;5.55;3.90;;;;;;;16.98;30.18;100012.67;1796130;78;21103;-81
2021/04/05 09:23:04;;;;;;;5.72;4.00;;;;;;;16.86;30.23;99998.14;1772753;79;21129;-79
2021/04/05 09:25:49;;;;;;;8.73;4.55;;;;;;;16.81;29.92;100000.65;1767714;80;21137;-79
2021/04/05 09:28:28;;;;;;;8.38;4.05;;;;;;;16.73;30.08;100000.33;1768546;80;21117;-78
2021/04/05 09:31:30;;;;;;;8.75;4.83;;;;;;;16.63;30.41;99994.49;1767923;80;21126;-77
2021/04/05 09:36:56;;;;;;;7.15;5.10;;;;;;;16.46;30.25;99978.37;1753994;79;22816;-79
2021/04/05 09:40:07;;;;;;;7.03;4.62;;;;;;;16.32;30.40;99982.12;1741886;79;21720;-78
2021/04/05 09:42:40;;;;;;;6.15;4.35;;;;;;;16.15;30.53;99978.45;1759512;79;22692;-82
2021/04/05 09:45:15;;;;;;;9.90;4.62;;;;;;;15.98;30.46;99972.61;1731368;80;21202;-80
2021/04/05 09:48:22;;;;;;;8.68;4.67;;;;;;;15.86;30.40;99967.52;1766201;79;21145;-78
2021/04/05 09:51:22;;;;;;;7.05;3.80;;;;;;;15.76;30.56;99966.22;1758504;79;21145;-78
2021/04/05 09:54:12;;;;;;;4.35;2.92;;;;;;;15.70;30.55;99966.52;1763749;80;21113;-80
2021/04/05 09:56:47;;;;;;;4.87;3.55;;;;;;;15.64;30.65;99961.42;1761217;79;21655;-79
2021/04/05 09:59:21;;;;;;;5.33;4.10;;;;;;;15.55;30.68;99965.31;1740983;79;21073;-78
2021/04/05 10:01:51;;;;;;;8.68;5.00;;;;;;;15.46;30.96;99958.43;1763471;79;21094;-79
2021/04/05 10:04:23;;;;;;;5.50;4.35;;;;;;;15.42;31.15;99954.47;1763696;79;21161;-77
2021/04/05 10:06:53;;;;;;;6.05;4.58;;;;;;;15.40;31.24;99951.98;1736562;79;21102;-83
2021/04/05 10:09:29;;;;;;;8.75;5.22;;;;;;;15.38;31.29;99945.11;1761069;79;21129;-83
2021/04/05 10:11:56;;;;;;;10.88;6.12;;;;;;;15.37;31.40;99948.84;1765108;79;21747;-81
2021/04/05 10:14:25;;;;;;;10.18;7.00;;;;;;;15.34;31.50;99948.72;1680246;80;21158;-78
2021/04/05 10:16:53;;;;;;;11.55;7.22;;;;;;;15.30;31.60;99947.97;1727967;80;21117;-78
2021/04/05 10:19:35;;;;;;;8.48;6.65;;;;;;;15.27;31.82;99945.70;1697707;81;21138;-79
2021/04/05 10:22:05;;;;;;;9.28;7.40;;;;;;;15.27;31.89;99947.05;1724176;80;21156;-81
2021/04/05 10:24:42;;;;;;;14.38;7.78;;;;;;;15.25;32.08;99938.30;1732152;81;21129;-77
2021/04/05 10:27:11;;;;;;;11.78;7.37;;;;;;;15.23;32.36;99936.65;1732223;81;21029;-77
2021/04/05 10:29:42;;;;;;;11.57;7.22;;;;;;;15.25;32.34;99928.86;1731295;80;21227;-81
2021/04/05 10:32:15;;;;;;;12.05;7.42;;;;;;;15.26;32.43;99922.42;1728991;80;21226;-80
2021/04/05 10:34:45;;;;;;;9.00;5.62;;;;;;;15.29;32.61;99932.83;1728715;81;21245;-79
2021/04/05 10:37:16;;;;;;;13.70;6.58;;;;;;;15.28;31.74;99921.20;1762144;79;21278;-78
2021/04/05 10:39:48;;;;;;;12.03;6.62;;;;;;;15.30;31.86;99919.13;1742396;80;21133;-79
2021/04/05 10:42:33;;;;;;;9.00;6.20;;;;;;;15.31;31.78;99912.72;1743033;80;21113;-78
2021/04/05 10:45:18;;;;;;;10.40;6.72;;;;;;;15.32;31.91;99909.50;1765976;79;21134;-80
2021/04/05 10:47:58;;;;;;;11.75;6.83;;;;;;;15.34;31.93;99904.19;1730579;81;21165;-80
2021/04/05 10:50:41;;;;;;;14.90;8.20;;;;;;;15.36;32.19;99901.31;1696931;82;21205;-79
2021/04/05 10:53:15;;;;;;;11.22;7.97;;;;;;;15.37;32.24;99909.72;1729543;81;21754;-78
2021/04/05 10:55:49;;;;;;;10.80;7.83;;;;;;;15.31;32.37;99904.63;1698908;82;21165;-82
2021/04/05 10:58:20;;;;;;;12.03;6.62;;;;;;;15.27;32.79;99898.48;1733418;81;21168;-81
2021/04/05 11:00:53;;;;;;;15.48;7.25;;;;;;;15.18;32.87;99893.25;1706379;81;21163;-78
2021/04/05 11:03:23;;;;;;;9.28;6.62;;;;;;;15.15;32.93;99895.00;1730756;82;21604;-79
2021/04/05 11:05:51;;;;;;;11.28;6.78;;;;;;;15.12;32.79;99888.65;1726407;81;21192;-80
2021/04/05 11:08:26;;;;;;;7.65;5.70;;;;;;;15.11;32.44;99884.30;1677709;81;21247;-76
2021/04/05 11:11:11;;;;;;;7.35;5.05;;;;;;;15.14;31.84;99886.59;1700291;82;22195;-77
2021/04/05 11:13:52;;;;;;;12.07;6.22;;;;;;;15.17;31.25;99886.69;1710961;81;21676;-78
2021/04/05 11:16:21;;;;;;;14.70;6.78;;;;;;;15.18;31.02;99876.24;1702366;82;21201;-80
2021/04/05 11:19:00;;;;;;;12.63;7.47;;;;;;;15.20;30.91;99868.24;1736863;80;21096;-75
2021/04/05 11:21:39;;;;;;;17.37;8.68;;;;;;;15.20;30.94;99866.06;1763205;79;21130;-76
2021/04/05 11:24:08;;;;;;;16.10;8.50;;;;;;;15.23;30.90;99862.45;1732839;81;21125;-79
2021/04/05 11:26:37;;;;;;;13.28;8.05;;;;;;;15.25;30.62;99851.97;1764676;80;21145;-78
2021/04/05 11:29:13;;;;;;;7.95;5.83;;;;;;;15.24;30.58;99852.48;1740937;80;21628;-79
2021/04/05 11:31:43;;;;;;;7.47;5.87;;;;;;;15.21;30.39;99848.34;1766558;79;21701;-79
2021/04/05 11:34:13;;;;;;;13.70;5.42;;;;;;;15.17;30.05;99840.34;1734630;81;21161;-80
2021/04/05 11:36:47;;;;;;;17.25;9.55;;;;;;;15.19;30.08;99839.61;1690129;82;21136;-80
2021/04/05 11:39:19;;;;;;;15.13;9.98;;;;;;;15.25;30.29;99833.08;1733912;81;21136;-78
2021/04/05 11:41:53;;;;;;;22.52;11.45;;;;;;;15.31;30.45;99831.77;1703803;81;21578;-79
2021/04/05 11:44:23;;;;;;;10.13;7.58;;;;;;;15.37;30.22;99828.23;1734443;81;21101;-78
2021/04/05 11:46:50;;;;;;;17.45;8.88;;;;;;;15.39;29.75;99828.02;1732785;81;21137;-78
2021/04/05 11:49:18;;;;;;;12.28;6.53;;;;;;;15.39;29.71;99819.92;1671295;81;22030;-77
2021/04/05 11:51:58;;;;;;;;;;;;;;;15.41;29.57;99817.34;1735771;80;21172;-80
2021/04/05 11:54:41;;;;;;;5.87;4.55;;;;;;;15.40;29.29;99817.05;1724896;81;20185;-76
2021/04/05 11:57:11;;;;;;;15.20;9.53;;;;;;;15.36;29.15;99810.91;1762765;79;21206;-78
2021/04/05 11:59:48;;;;;;;12.33;8.50;;;;;;;15.36;29.46;99810.39;1767740;79;21088;-78
2021/04/05 12:02:28;;;;;;;13.60;8.60;;;;;;;15.39;29.49;99806.44;1731401;80;21177;-78
2021/04/05 12:05:07;;;;;;;22.55;10.90;;;;;;;15.41;29.27;99807.08;1693591;81;21172;-78
2021/04/05 12:07:37;;;;;;;16.62;10.03;;;;;;;15.42;29.29;99805.52;1730009;80;21015;-76
2021/04/05 12:10:18;;;;;;;17.10;10.93;;;;;;;15.46;29.63;99803.23;1708912;81;21185;-78
2021/04/05 12:13:05;;;;;;;16.70;10.78;;;;;;;15.50;29.60;99803.14;1724949;81;21232;-78
2021/04/05 12:15:34;;;;;;;25.25;11.75;;;;;;;15.48;29.46;99797.10;1735739;81;21113;-78
2021/04/05 12:18:02;;;;;;;18.25;11.50;;;;;;;15.46;29.27;99790.57;1732774;80;21129;-76